This is the latest recevied weather packets stored in our database for station/object EW6780. If no packets are shown the sender has not sent any weather packets the latest 10 day(s).
| Time | Temp. | Humidity | Pressure | Rain* | Wind** | Luminosity | Snow |
|---|---|---|---|---|---|---|---|
| 1778172008 | 16.67° C | 40% | 1009.8 hPa | 0 mm | - | - | - |
| 1778171408 | 16.11° C | 40% | 1009.9 hPa | 0 mm | - | - | - |
| 1778171111 | 16.11° C | 38% | 1009.9 hPa | 0 mm | - | - | - |
| 1778168405 | 15° C | 42% | 1010.6 hPa | 0 mm | - | - | - |
| 1778167211 | 14.44° C | 39% | 1010.8 hPa | 0 mm | - | - | - |
| 1778166309 | 14.44° C | 42% | 1011 hPa | 0 mm | - | - | - |
| 1778164808 | 13.89° C | 48% | 1011.2 hPa | 0.25 mm | - | - | - |
| 1778163906 | 13.33° C | 51% | 1011.1 hPa | 0.25 mm | - | - | - |
| 1778162708 | 13.33° C | 58% | 1011.1 hPa | 0.25 mm | - | - | - |
| 1778161508 | 12.78° C | 67% | 1011 hPa | 0.25 mm | - | - | - |
| 1778159705 | 11.11° C | 80% | 1011.2 hPa | 0 mm | - | - | - |
| 1778158506 | 10.56° C | 84% | 1011.2 hPa | 0.25 mm | - | - | - |
| 1778157608 | 10° C | 88% | 1011.4 hPa | 0.25 mm | - | - | - |
| 1778157308 | 10° C | 88% | 1011.4 hPa | 0.25 mm | - | - | - |
| 1778156108 | 10° C | 89% | 1011.3 hPa | 0.51 mm | - | - | - |
| 1778155808 | 10° C | 89% | 1011.3 hPa | 0.25 mm | - | - | - |
| 1778154905 | 9.44° C | 90% | 1011.1 hPa | 0.25 mm | - | - | - |
| 1778154609 | 9.44° C | 90% | 1011 hPa | 0.25 mm | - | - | - |
| 1778151908 | 9.44° C | 92% | 1010.6 hPa | 0.25 mm | - | - | - |
| 1778151009 | 9.44° C | 92% | 1010.2 hPa | 0.51 mm | - | - | - |
| 1778150105 | 9.44° C | 92% | 1010.2 hPa | 0.51 mm | - | - | - |
| 1778149511 | 9.44° C | 92% | 1010.1 hPa | 0.25 mm | - | - | - |
| 1778148005 | 9.44° C | 92% | 1009.8 hPa | 0.51 mm | - | - | - |
| 1778147111 | 9.44° C | 92% | 1009.6 hPa | 0.51 mm | - | - | - |
| 1778146808 | 9.44° C | 93% | 1009.7 hPa | 0.51 mm | - | - | - |
* Rain latest hour (hover to see other rain measurements)
** Current wind speed in m/s (hover to see current wind gust speed)